sensor_id;sensor_type;location;lat;lon;timestamp;P1;durP1;ratioP1;P2;durP2;ratioP2
23596;SDS011;40226;50.874;4.394;2023-04-03T00:01:31;26.23;;;17.38;;
23596;SDS011;40226;50.874;4.394;2023-04-03T00:03:57;27.38;;;17.30;;
23596;SDS011;40226;50.874;4.394;2023-04-03T00:06:23;25.85;;;16.38;;
23596;SDS011;40226;50.874;4.394;2023-04-03T00:08:49;28.13;;;16.75;;
23596;SDS011;40226;50.874;4.394;2023-04-03T00:11:16;26.65;;;16.02;;
23596;SDS011;40226;50.874;4.394;2023-04-03T00:13:42;22.52;;;14.88;;
23596;SDS011;40226;50.874;4.394;2023-04-03T00:16:08;23.42;;;15.13;;
23596;SDS011;40226;50.874;4.394;2023-04-03T00:18:35;22.88;;;14.40;;
23596;SDS011;40226;50.874;4.394;2023-04-03T00:21:02;22.70;;;14.75;;
23596;SDS011;40226;50.874;4.394;2023-04-03T00:23:28;24.42;;;15.15;;
23596;SDS011;40226;50.874;4.394;2023-04-03T00:25:54;24.70;;;14.70;;
23596;SDS011;40226;50.874;4.394;2023-04-03T00:28:20;22.42;;;14.23;;
23596;SDS011;40226;50.874;4.394;2023-04-03T00:30:52;21.63;;;13.70;;
23596;SDS011;40226;50.874;4.394;2023-04-03T00:35:49;23.25;;;13.65;;
23596;SDS011;40226;50.874;4.394;2023-04-03T00:38:15;28.52;;;16.58;;
23596;SDS011;40226;50.874;4.394;2023-04-03T00:40:42;22.50;;;15.38;;
23596;SDS011;40226;50.874;4.394;2023-04-03T00:43:17;27.02;;;15.77;;
23596;SDS011;40226;50.874;4.394;2023-04-03T00:45:57;25.30;;;14.75;;
23596;SDS011;40226;50.874;4.394;2023-04-03T00:48:37;24.95;;;14.07;;
23596;SDS011;40226;50.874;4.394;2023-04-03T00:51:11;23.15;;;15.20;;
23596;SDS011;40226;50.874;4.394;2023-04-03T00:53:46;20.08;;;13.63;;
23596;SDS011;40226;50.874;4.394;2023-04-03T00:56:16;20.23;;;13.70;;
23596;SDS011;40226;50.874;4.394;2023-04-03T00:58:46;22.40;;;13.90;;
23596;SDS011;40226;50.874;4.394;2023-04-03T01:01:18;20.65;;;13.35;;
23596;SDS011;40226;50.874;4.394;2023-04-03T01:03:48;21.20;;;13.40;;
23596;SDS011;40226;50.874;4.394;2023-04-03T01:06:14;19.15;;;13.07;;
23596;SDS011;40226;50.874;4.394;2023-04-03T01:08:41;19.15;;;13.05;;
23596;SDS011;40226;50.874;4.394;2023-04-03T01:11:08;19.35;;;13.43;;
23596;SDS011;40226;50.874;4.394;2023-04-03T01:13:33;19.25;;;13.90;;
23596;SDS011;40226;50.874;4.394;2023-04-03T01:16:04;21.90;;;13.02;;
23596;SDS011;40226;50.874;4.394;2023-04-03T01:18:30;21.02;;;13.93;;
23596;SDS011;40226;50.874;4.394;2023-04-03T01:26:09;20.33;;;13.02;;
23596;SDS011;40226;50.874;4.394;2023-04-03T01:28:36;18.50;;;13.10;;
23596;SDS011;40226;50.874;4.394;2023-04-03T01:31:06;20.05;;;12.88;;
23596;SDS011;40226;50.874;4.394;2023-04-03T01:33:51;19.55;;;13.00;;
23596;SDS011;40226;50.874;4.394;2023-04-03T01:36:18;18.15;;;13.40;;
23596;SDS011;40226;50.874;4.394;2023-04-03T01:38:46;23.17;;;13.60;;
23596;SDS011;40226;50.874;4.394;2023-04-03T01:41:12;22.55;;;14.20;;
23596;SDS011;40226;50.874;4.394;2023-04-03T01:43:38;19.80;;;14.18;;
23596;SDS011;40226;50.874;4.394;2023-04-03T01:46:03;26.08;;;13.98;;
23596;SDS011;40226;50.874;4.394;2023-04-03T01:48:29;24.00;;;14.80;;
23596;SDS011;40226;50.874;4.394;2023-04-03T01:50:54;19.35;;;12.98;;
23596;SDS011;40226;50.874;4.394;2023-04-03T01:53:21;24.27;;;14.27;;
23596;SDS011;40226;50.874;4.394;2023-04-03T01:55:46;20.75;;;14.30;;
23596;SDS011;40226;50.874;4.394;2023-04-03T01:58:13;21.88;;;13.55;;
23596;SDS011;40226;50.874;4.394;2023-04-03T02:00:38;22.95;;;14.10;;
23596;SDS011;40226;50.874;4.394;2023-04-03T02:03:04;23.30;;;13.10;;
23596;SDS011;40226;50.874;4.394;2023-04-03T02:05:30;22.10;;;13.35;;
23596;SDS011;40226;50.874;4.394;2023-04-03T02:07:55;20.00;;;13.65;;
23596;SDS011;40226;50.874;4.394;2023-04-03T02:10:21;19.23;;;13.45;;
23596;SDS011;40226;50.874;4.394;2023-04-03T02:12:47;22.40;;;13.98;;
23596;SDS011;40226;50.874;4.394;2023-04-03T02:15:12;23.45;;;13.68;;
23596;SDS011;40226;50.874;4.394;2023-04-03T02:17:38;18.90;;;12.55;;
23596;SDS011;40226;50.874;4.394;2023-04-03T02:20:04;20.63;;;13.23;;
23596;SDS011;40226;50.874;4.394;2023-04-03T02:22:30;19.52;;;12.70;;
23596;SDS011;40226;50.874;4.394;2023-04-03T02:24:56;21.25;;;13.45;;
23596;SDS011;40226;50.874;4.394;2023-04-03T02:27:21;20.60;;;12.70;;
23596;SDS011;40226;50.874;4.394;2023-04-03T02:29:47;20.63;;;12.70;;
23596;SDS011;40226;50.874;4.394;2023-04-03T02:32:13;16.73;;;12.35;;
23596;SDS011;40226;50.874;4.394;2023-04-03T02:34:38;21.10;;;12.95;;
23596;SDS011;40226;50.874;4.394;2023-04-03T02:37:04;20.30;;;13.43;;
23596;SDS011;40226;50.874;4.394;2023-04-03T02:39:30;19.60;;;12.93;;
23596;SDS011;40226;50.874;4.394;2023-04-03T02:41:55;20.60;;;13.18;;
23596;SDS011;40226;50.874;4.394;2023-04-03T02:44:21;21.13;;;13.27;;
23596;SDS011;40226;50.874;4.394;2023-04-03T02:46:48;19.05;;;12.40;;
23596;SDS011;40226;50.874;4.394;2023-04-03T02:49:14;18.15;;;12.38;;
23596;SDS011;40226;50.874;4.394;2023-04-03T02:51:40;18.40;;;12.50;;
23596;SDS011;40226;50.874;4.394;2023-04-03T02:54:06;20.88;;;12.88;;
23596;SDS011;40226;50.874;4.394;2023-04-03T02:56:32;17.90;;;12.73;;
23596;SDS011;40226;50.874;4.394;2023-04-03T02:58:58;21.45;;;13.25;;
23596;SDS011;40226;50.874;4.394;2023-04-03T03:01:23;22.80;;;14.70;;
23596;SDS011;40226;50.874;4.394;2023-04-03T03:03:49;21.35;;;14.63;;
23596;SDS011;40226;50.874;4.394;2023-04-03T03:06:15;24.60;;;14.75;;
23596;SDS011;40226;50.874;4.394;2023-04-03T03:08:42;25.00;;;13.57;;
23596;SDS011;40226;50.874;4.394;2023-04-03T03:11:08;23.13;;;14.23;;
23596;SDS011;40226;50.874;4.394;2023-04-03T03:13:34;23.45;;;13.45;;
23596;SDS011;40226;50.874;4.394;2023-04-03T03:16:00;16.83;;;13.07;;
23596;SDS011;40226;50.874;4.394;2023-04-03T03:18:27;23.65;;;13.65;;
23596;SDS011;40226;50.874;4.394;2023-04-03T03:20:53;22.63;;;14.13;;
23596;SDS011;40226;50.874;4.394;2023-04-03T03:23:21;21.65;;;13.90;;
23596;SDS011;40226;50.874;4.394;2023-04-03T03:25:48;20.42;;;13.05;;
23596;SDS011;40226;50.874;4.394;2023-04-03T03:28:13;23.23;;;13.15;;
23596;SDS011;40226;50.874;4.394;2023-04-03T03:30:39;19.33;;;12.98;;
23596;SDS011;40226;50.874;4.394;2023-04-03T03:33:05;21.40;;;13.40;;
23596;SDS011;40226;50.874;4.394;2023-04-03T03:35:31;19.73;;;13.70;;
23596;SDS011;40226;50.874;4.394;2023-04-03T03:37:57;21.65;;;14.38;;
23596;SDS011;40226;50.874;4.394;2023-04-03T03:40:22;19.42;;;14.75;;
23596;SDS011;40226;50.874;4.394;2023-04-03T03:42:48;22.23;;;14.07;;
23596;SDS011;40226;50.874;4.394;2023-04-03T03:45:14;22.50;;;14.23;;
23596;SDS011;40226;50.874;4.394;2023-04-03T03:47:39;25.92;;;14.10;;
23596;SDS011;40226;50.874;4.394;2023-04-03T03:50:05;22.63;;;14.40;;
23596;SDS011;40226;50.874;4.394;2023-04-03T03:52:31;21.17;;;14.13;;
23596;SDS011;40226;50.874;4.394;2023-04-03T03:54:57;25.13;;;15.00;;
23596;SDS011;40226;50.874;4.394;2023-04-03T03:57:22;24.33;;;14.05;;
23596;SDS011;40226;50.874;4.394;2023-04-03T03:59:48;25.15;;;14.93;;
23596;SDS011;40226;50.874;4.394;2023-04-03T04:02:15;22.77;;;14.55;;
23596;SDS011;40226;50.874;4.394;2023-04-03T04:04:41;23.73;;;14.60;;
23596;SDS011;40226;50.874;4.394;2023-04-03T04:07:06;23.33;;;14.07;;
23596;SDS011;40226;50.874;4.394;2023-04-03T04:09:32;23.98;;;14.52;;
23596;SDS011;40226;50.874;4.394;2023-04-03T04:11:58;21.77;;;14.77;;
23596;SDS011;40226;50.874;4.394;2023-04-03T04:14:23;21.85;;;14.45;;
23596;SDS011;40226;50.874;4.394;2023-04-03T04:16:49;22.40;;;14.30;;
23596;SDS011;40226;50.874;4.394;2023-04-03T04:19:15;23.77;;;15.43;;
23596;SDS011;40226;50.874;4.394;2023-04-03T04:21:40;21.70;;;14.43;;
23596;SDS011;40226;50.874;4.394;2023-04-03T04:24:06;22.92;;;15.20;;
23596;SDS011;40226;50.874;4.394;2023-04-03T04:26:33;19.13;;;14.20;;
23596;SDS011;40226;50.874;4.394;2023-04-03T04:28:58;22.92;;;14.82;;
23596;SDS011;40226;50.874;4.394;2023-04-03T04:31:24;27.08;;;14.93;;
23596;SDS011;40226;50.874;4.394;2023-04-03T04:33:50;21.02;;;15.25;;
23596;SDS011;40226;50.874;4.394;2023-04-03T04:36:16;22.10;;;15.43;;
23596;SDS011;40226;50.874;4.394;2023-04-03T04:38:41;22.38;;;15.25;;
23596;SDS011;40226;50.874;4.394;2023-04-03T04:41:07;26.05;;;15.15;;
23596;SDS011;40226;50.874;4.394;2023-04-03T04:43:33;24.83;;;15.20;;
23596;SDS011;40226;50.874;4.394;2023-04-03T04:48:31;26.63;;;17.87;;
23596;SDS011;40226;50.874;4.394;2023-04-03T04:50:58;23.55;;;15.13;;
23596;SDS011;40226;50.874;4.394;2023-04-03T04:53:23;27.08;;;16.88;;
23596;SDS011;40226;50.874;4.394;2023-04-03T04:55:49;29.98;;;18.00;;
23596;SDS011;40226;50.874;4.394;2023-04-03T04:58:15;27.25;;;16.40;;
23596;SDS011;40226;50.874;4.394;2023-04-03T05:00:40;27.40;;;15.35;;
23596;SDS011;40226;50.874;4.394;2023-04-03T05:03:06;30.02;;;15.90;;
23596;SDS011;40226;50.874;4.394;2023-04-03T05:05:32;26.40;;;16.90;;
23596;SDS011;40226;50.874;4.394;2023-04-03T05:07:57;25.17;;;16.17;;
23596;SDS011;40226;50.874;4.394;2023-04-03T05:10:24;24.45;;;16.20;;
23596;SDS011;40226;50.874;4.394;2023-04-03T05:12:50;29.50;;;16.95;;
23596;SDS011;40226;50.874;4.394;2023-04-03T05:15:15;26.10;;;17.50;;
23596;SDS011;40226;50.874;4.394;2023-04-03T05:17:41;25.98;;;17.15;;
23596;SDS011;40226;50.874;4.394;2023-04-03T05:20:07;30.25;;;17.85;;
23596;SDS011;40226;50.874;4.394;2023-04-03T05:22:33;28.02;;;17.17;;
23596;SDS011;40226;50.874;4.394;2023-04-03T05:24:59;27.42;;;17.48;;
23596;SDS011;40226;50.874;4.394;2023-04-03T05:27:25;28.58;;;17.42;;
23596;SDS011;40226;50.874;4.394;2023-04-03T05:29:53;29.08;;;19.30;;
23596;SDS011;40226;50.874;4.394;2023-04-03T05:32:19;28.73;;;18.23;;
23596;SDS011;40226;50.874;4.394;2023-04-03T05:34:45;30.77;;;18.40;;
23596;SDS011;40226;50.874;4.394;2023-04-03T05:37:11;30.33;;;19.48;;
23596;SDS011;40226;50.874;4.394;2023-04-03T05:39:37;32.05;;;18.58;;
23596;SDS011;40226;50.874;4.394;2023-04-03T05:42:05;30.30;;;18.65;;
23596;SDS011;40226;50.874;4.394;2023-04-03T05:44:31;32.50;;;21.20;;
23596;SDS011;40226;50.874;4.394;2023-04-03T05:46:57;28.27;;;19.10;;
23596;SDS011;40226;50.874;4.394;2023-04-03T05:49:22;32.00;;;18.25;;
23596;SDS011;40226;50.874;4.394;2023-04-03T05:51:48;29.90;;;18.38;;
23596;SDS011;40226;50.874;4.394;2023-04-03T05:54:21;29.67;;;18.75;;
23596;SDS011;40226;50.874;4.394;2023-04-03T05:56:57;35.15;;;20.88;;
23596;SDS011;40226;50.874;4.394;2023-04-03T05:59:22;33.17;;;19.92;;
23596;SDS011;40226;50.874;4.394;2023-04-03T06:01:48;28.13;;;18.65;;
23596;SDS011;40226;50.874;4.394;2023-04-03T06:04:14;31.70;;;19.52;;
23596;SDS011;40226;50.874;4.394;2023-04-03T06:06:44;34.47;;;20.95;;
23596;SDS011;40226;50.874;4.394;2023-04-03T06:09:11;36.25;;;20.80;;
23596;SDS011;40226;50.874;4.394;2023-04-03T06:11:37;35.97;;;19.88;;
23596;SDS011;40226;50.874;4.394;2023-04-03T06:14:02;29.92;;;18.52;;
23596;SDS011;40226;50.874;4.394;2023-04-03T06:16:28;34.63;;;20.90;;
23596;SDS011;40226;50.874;4.394;2023-04-03T06:18:53;32.42;;;20.00;;
23596;SDS011;40226;50.874;4.394;2023-04-03T06:21:20;32.30;;;20.02;;
23596;SDS011;40226;50.874;4.394;2023-04-03T06:23:45;34.50;;;20.05;;
23596;SDS011;40226;50.874;4.394;2023-04-03T06:26:11;30.25;;;19.60;;
23596;SDS011;40226;50.874;4.394;2023-04-03T06:28:36;25.63;;;19.08;;
23596;SDS011;40226;50.874;4.394;2023-04-03T06:31:02;30.30;;;19.58;;
23596;SDS011;40226;50.874;4.394;2023-04-03T06:33:28;29.40;;;19.10;;
23596;SDS011;40226;50.874;4.394;2023-04-03T06:35:57;97.10;;;29.40;;
23596;SDS011;40226;50.874;4.394;2023-04-03T06:38:23;31.60;;;18.40;;
23596;SDS011;40226;50.874;4.394;2023-04-03T06:40:49;32.97;;;18.60;;
23596;SDS011;40226;50.874;4.394;2023-04-03T06:43:16;27.83;;;18.92;;
23596;SDS011;40226;50.874;4.394;2023-04-03T06:45:42;31.08;;;19.40;;
23596;SDS011;40226;50.874;4.394;2023-04-03T06:48:07;33.35;;;19.58;;
23596;SDS011;40226;50.874;4.394;2023-04-03T06:50:33;29.88;;;18.88;;
23596;SDS011;40226;50.874;4.394;2023-04-03T06:52:59;32.80;;;19.02;;
23596;SDS011;40226;50.874;4.394;2023-04-03T06:55:26;30.48;;;19.67;;
23596;SDS011;40226;50.874;4.394;2023-04-03T06:57:51;31.65;;;19.92;;
23596;SDS011;40226;50.874;4.394;2023-04-03T07:00:17;26.48;;;18.63;;
23596;SDS011;40226;50.874;4.394;2023-04-03T07:02:43;28.67;;;19.55;;
23596;SDS011;40226;50.874;4.394;2023-04-03T07:05:10;26.88;;;18.38;;
23596;SDS011;40226;50.874;4.394;2023-04-03T07:07:36;23.02;;;18.13;;
23596;SDS011;40226;50.874;4.394;2023-04-03T07:10:02;27.58;;;18.38;;
23596;SDS011;40226;50.874;4.394;2023-04-03T07:12:29;27.15;;;17.95;;
23596;SDS011;40226;50.874;4.394;2023-04-03T07:14:55;31.70;;;18.52;;
23596;SDS011;40226;50.874;4.394;2023-04-03T07:17:20;23.88;;;16.83;;
23596;SDS011;40226;50.874;4.394;2023-04-03T07:19:46;23.17;;;17.25;;
23596;SDS011;40226;50.874;4.394;2023-04-03T07:22:12;22.73;;;16.40;;
23596;SDS011;40226;50.874;4.394;2023-04-03T07:24:38;29.42;;;18.15;;
23596;SDS011;40226;50.874;4.394;2023-04-03T07:27:03;23.98;;;17.00;;
23596;SDS011;40226;50.874;4.394;2023-04-03T07:29:29;29.90;;;18.67;;
23596;SDS011;40226;50.874;4.394;2023-04-03T07:31:55;22.70;;;16.23;;
23596;SDS011;40226;50.874;4.394;2023-04-03T07:34:20;22.75;;;16.20;;
23596;SDS011;40226;50.874;4.394;2023-04-03T07:36:46;24.17;;;15.65;;
23596;SDS011;40226;50.874;4.394;2023-04-03T07:39:12;24.50;;;15.65;;
23596;SDS011;40226;50.874;4.394;2023-04-03T07:41:38;21.73;;;14.93;;
23596;SDS011;40226;50.874;4.394;2023-04-03T07:44:03;22.02;;;14.85;;
23596;SDS011;40226;50.874;4.394;2023-04-03T07:46:30;25.98;;;14.88;;
23596;SDS011;40226;50.874;4.394;2023-04-03T07:48:56;21.95;;;15.45;;
23596;SDS011;40226;50.874;4.394;2023-04-03T07:51:21;22.50;;;16.02;;
23596;SDS011;40226;50.874;4.394;2023-04-03T07:53:47;22.08;;;15.35;;
23596;SDS011;40226;50.874;4.394;2023-04-03T07:56:13;19.52;;;14.98;;
23596;SDS011;40226;50.874;4.394;2023-04-03T07:58:39;23.77;;;15.38;;
23596;SDS011;40226;50.874;4.394;2023-04-03T08:01:04;21.98;;;15.27;;
23596;SDS011;40226;50.874;4.394;2023-04-03T08:03:31;24.73;;;15.35;;
23596;SDS011;40226;50.874;4.394;2023-04-03T08:06:01;25.98;;;15.70;;
23596;SDS011;40226;50.874;4.394;2023-04-03T08:08:30;24.55;;;14.05;;
23596;SDS011;40226;50.874;4.394;2023-04-03T08:10:58;23.73;;;14.50;;
23596;SDS011;40226;50.874;4.394;2023-04-03T08:13:25;21.90;;;14.38;;
23596;SDS011;40226;50.874;4.394;2023-04-03T08:15:51;21.40;;;15.18;;
23596;SDS011;40226;50.874;4.394;2023-04-03T08:18:17;20.33;;;14.48;;
23596;SDS011;40226;50.874;4.394;2023-04-03T08:20:46;23.25;;;14.93;;
23596;SDS011;40226;50.874;4.394;2023-04-03T08:23:12;23.13;;;15.27;;
23596;SDS011;40226;50.874;4.394;2023-04-03T08:25:41;20.38;;;14.07;;
23596;SDS011;40226;50.874;4.394;2023-04-03T08:28:08;22.02;;;14.35;;
23596;SDS011;40226;50.874;4.394;2023-04-03T08:30:35;22.70;;;14.80;;
23596;SDS011;40226;50.874;4.394;2023-04-03T08:33:04;22.17;;;14.48;;
23596;SDS011;40226;50.874;4.394;2023-04-03T08:35:31;27.48;;;14.93;;
23596;SDS011;40226;50.874;4.394;2023-04-03T08:37:56;22.42;;;13.80;;
23596;SDS011;40226;50.874;4.394;2023-04-03T08:40:22;20.25;;;13.95;;
23596;SDS011;40226;50.874;4.394;2023-04-03T08:48:15;19.60;;;12.52;;
23596;SDS011;40226;50.874;4.394;2023-04-03T08:50:59;17.88;;;11.77;;
23596;SDS011;40226;50.874;4.394;2023-04-03T08:53:30;18.45;;;11.38;;
23596;SDS011;40226;50.874;4.394;2023-04-03T08:55:59;16.80;;;11.57;;
23596;SDS011;40226;50.874;4.394;2023-04-03T08:58:33;18.52;;;11.70;;
23596;SDS011;40226;50.874;4.394;2023-04-03T09:03:52;16.13;;;10.65;;
23596;SDS011;40226;50.874;4.394;2023-04-03T09:08:50;18.17;;;10.63;;
23596;SDS011;40226;50.874;4.394;2023-04-03T09:13:59;17.63;;;9.57;;
23596;SDS011;40226;50.874;4.394;2023-04-03T09:21:49;15.68;;;8.20;;
23596;SDS011;40226;50.874;4.394;2023-04-03T09:24:15;13.60;;;8.00;;
23596;SDS011;40226;50.874;4.394;2023-04-03T09:26:46;12.65;;;7.60;;
23596;SDS011;40226;50.874;4.394;2023-04-03T09:29:18;11.73;;;7.60;;
23596;SDS011;40226;50.874;4.394;2023-04-03T09:31:49;18.25;;;8.30;;
23596;SDS011;40226;50.874;4.394;2023-04-03T09:34:20;12.95;;;6.85;;
23596;SDS011;40226;50.874;4.394;2023-04-03T09:36:49;11.32;;;5.50;;
23596;SDS011;40226;50.874;4.394;2023-04-03T09:39:24;9.25;;;5.00;;
23596;SDS011;40226;50.874;4.394;2023-04-03T09:44:22;12.30;;;5.25;;
23596;SDS011;40226;50.874;4.394;2023-04-03T09:46:53;12.32;;;5.13;;
23596;SDS011;40226;50.874;4.394;2023-04-03T09:49:20;7.72;;;4.85;;
23596;SDS011;40226;50.874;4.394;2023-04-03T09:51:46;8.63;;;5.00;;
23596;SDS011;40226;50.874;4.394;2023-04-03T09:57:06;12.27;;;5.57;;
23596;SDS011;40226;50.874;4.394;2023-04-03T09:59:35;10.70;;;5.63;;
23596;SDS011;40226;50.874;4.394;2023-04-03T10:02:04;11.73;;;5.28;;
23596;SDS011;40226;50.874;4.394;2023-04-03T10:04:48;8.95;;;4.97;;
23596;SDS011;40226;50.874;4.394;2023-04-03T10:09:58;10.25;;;4.85;;
23596;SDS011;40226;50.874;4.394;2023-04-03T10:12:26;9.40;;;4.40;;
23596;SDS011;40226;50.874;4.394;2023-04-03T10:22:25;7.93;;;3.63;;
23596;SDS011;40226;50.874;4.394;2023-04-03T10:25:09;7.00;;;3.50;;
23596;SDS011;40226;50.874;4.394;2023-04-03T10:28:00;11.27;;;3.83;;
23596;SDS011;40226;50.874;4.394;2023-04-03T10:30:52;10.27;;;4.88;;
23596;SDS011;40226;50.874;4.394;2023-04-03T10:42:07;8.98;;;2.92;;
23596;SDS011;40226;50.874;4.394;2023-04-03T10:47:37;7.90;;;3.40;;
23596;SDS011;40226;50.874;4.394;2023-04-03T10:52:48;8.57;;;3.55;;
23596;SDS011;40226;50.874;4.394;2023-04-03T10:58:00;6.90;;;3.10;;
23596;SDS011;40226;50.874;4.394;2023-04-03T11:00:39;4.95;;;2.53;;
23596;SDS011;40226;50.874;4.394;2023-04-03T11:05:52;7.30;;;3.28;;
23596;SDS011;40226;50.874;4.394;2023-04-03T11:11:19;6.18;;;2.40;;
23596;SDS011;40226;50.874;4.394;2023-04-03T11:13:52;3.65;;;2.15;;
23596;SDS011;40226;50.874;4.394;2023-04-03T11:16:24;8.68;;;3.25;;
23596;SDS011;40226;50.874;4.394;2023-04-03T11:19:08;6.18;;;3.15;;
23596;SDS011;40226;50.874;4.394;2023-04-03T11:22:32;8.82;;;3.58;;
23596;SDS011;40226;50.874;4.394;2023-04-03T11:30:12;6.13;;;2.78;;
23596;SDS011;40226;50.874;4.394;2023-04-03T11:32:54;9.43;;;2.72;;
23596;SDS011;40226;50.874;4.394;2023-04-03T11:35:29;5.15;;;2.20;;
23596;SDS011;40226;50.874;4.394;2023-04-03T11:37:56;4.88;;;2.60;;
23596;SDS011;40226;50.874;4.394;2023-04-03T11:40:34;5.68;;;2.60;;
23596;SDS011;40226;50.874;4.394;2023-04-03T11:43:17;6.45;;;2.50;;
23596;SDS011;40226;50.874;4.394;2023-04-03T11:45:59;5.75;;;2.60;;
23596;SDS011;40226;50.874;4.394;2023-04-03T11:50:54;7.40;;;3.13;;
23596;SDS011;40226;50.874;4.394;2023-04-03T11:53:37;6.80;;;2.97;;
23596;SDS011;40226;50.874;4.394;2023-04-03T11:58:33;6.90;;;2.55;;
23596;SDS011;40226;50.874;4.394;2023-04-03T12:13:36;7.15;;;2.63;;
23596;SDS011;40226;50.874;4.394;2023-04-03T12:19:00;4.57;;;2.35;;
23596;SDS011;40226;50.874;4.394;2023-04-03T12:24:28;4.75;;;2.38;;
23596;SDS011;40226;50.874;4.394;2023-04-03T12:45:39;5.43;;;2.15;;
23596;SDS011;40226;50.874;4.394;2023-04-03T12:48:15;4.10;;;2.00;;
23596;SDS011;40226;50.874;4.394;2023-04-03T12:50:45;5.18;;;1.92;;
23596;SDS011;40226;50.874;4.394;2023-04-03T12:53:13;6.55;;;2.42;;
23596;SDS011;40226;50.874;4.394;2023-04-03T12:58:22;6.30;;;2.13;;
23596;SDS011;40226;50.874;4.394;2023-04-03T13:00:59;5.05;;;2.17;;
23596;SDS011;40226;50.874;4.394;2023-04-03T13:03:27;5.53;;;2.20;;
23596;SDS011;40226;50.874;4.394;2023-04-03T13:05:57;5.95;;;2.40;;
23596;SDS011;40226;50.874;4.394;2023-04-03T13:08:26;3.17;;;2.03;;
23596;SDS011;40226;50.874;4.394;2023-04-03T13:13:27;6.10;;;2.47;;
23596;SDS011;40226;50.874;4.394;2023-04-03T13:15:53;9.07;;;6.28;;
23596;SDS011;40226;50.874;4.394;2023-04-03T13:18:36;6.60;;;2.10;;
23596;SDS011;40226;50.874;4.394;2023-04-03T13:23:28;3.45;;;1.98;;
23596;SDS011;40226;50.874;4.394;2023-04-03T13:25:56;6.30;;;2.10;;
23596;SDS011;40226;50.874;4.394;2023-04-03T13:28:27;5.03;;;1.90;;
23596;SDS011;40226;50.874;4.394;2023-04-03T13:30:54;5.00;;;2.13;;
23596;SDS011;40226;50.874;4.394;2023-04-03T13:34:23;6.60;;;1.90;;
23596;SDS011;40226;50.874;4.394;2023-04-03T13:36:33;4.38;;;2.05;;
23596;SDS011;40226;50.874;4.394;2023-04-03T13:41:39;6.28;;;2.25;;
23596;SDS011;40226;50.874;4.394;2023-04-03T13:44:25;4.68;;;2.40;;
23596;SDS011;40226;50.874;4.394;2023-04-03T13:46:54;5.43;;;2.03;;
23596;SDS011;40226;50.874;4.394;2023-04-03T13:52:01;6.82;;;2.58;;
23596;SDS011;40226;50.874;4.394;2023-04-03T13:54:30;3.70;;;2.08;;
23596;SDS011;40226;50.874;4.394;2023-04-03T13:56:59;4.38;;;2.25;;
23596;SDS011;40226;50.874;4.394;2023-04-03T14:04:29;5.50;;;2.22;;
23596;SDS011;40226;50.874;4.394;2023-04-03T14:06:57;6.15;;;2.63;;
23596;SDS011;40226;50.874;4.394;2023-04-03T14:09:24;5.90;;;2.22;;
23596;SDS011;40226;50.874;4.394;2023-04-03T14:11:53;4.72;;;1.95;;
23596;SDS011;40226;50.874;4.394;2023-04-03T14:14:23;4.88;;;2.08;;
23596;SDS011;40226;50.874;4.394;2023-04-03T14:16:53;4.13;;;2.10;;
23596;SDS011;40226;50.874;4.394;2023-04-03T14:19:25;5.13;;;2.80;;
23596;SDS011;40226;50.874;4.394;2023-04-03T14:21:53;7.25;;;2.70;;
23596;SDS011;40226;50.874;4.394;2023-04-03T14:24:20;5.00;;;2.13;;
23596;SDS011;40226;50.874;4.394;2023-04-03T14:26:46;5.20;;;2.13;;
23596;SDS011;40226;50.874;4.394;2023-04-03T14:29:13;5.97;;;2.70;;
23596;SDS011;40226;50.874;4.394;2023-04-03T14:31:41;4.38;;;2.47;;
23596;SDS011;40226;50.874;4.394;2023-04-03T14:34:09;6.85;;;2.30;;
23596;SDS011;40226;50.874;4.394;2023-04-03T14:36:55;5.53;;;2.45;;
23596;SDS011;40226;50.874;4.394;2023-04-03T14:39:20;4.22;;;2.20;;
23596;SDS011;40226;50.874;4.394;2023-04-03T14:41:46;5.55;;;2.20;;
23596;SDS011;40226;50.874;4.394;2023-04-03T14:44:12;5.53;;;2.40;;
23596;SDS011;40226;50.874;4.394;2023-04-03T14:46:38;5.40;;;2.35;;
23596;SDS011;40226;50.874;4.394;2023-04-03T14:49:18;6.65;;;2.65;;
23596;SDS011;40226;50.874;4.394;2023-04-03T14:51:45;6.13;;;2.22;;
23596;SDS011;40226;50.874;4.394;2023-04-03T14:54:15;4.88;;;2.70;;
23596;SDS011;40226;50.874;4.394;2023-04-03T14:56:58;8.30;;;2.50;;
23596;SDS011;40226;50.874;4.394;2023-04-03T14:59:25;7.50;;;3.03;;
23596;SDS011;40226;50.874;4.394;2023-04-03T15:01:52;5.25;;;2.10;;
23596;SDS011;40226;50.874;4.394;2023-04-03T15:04:20;4.55;;;2.20;;
23596;SDS011;40226;50.874;4.394;2023-04-03T15:07:09;5.07;;;2.53;;
23596;SDS011;40226;50.874;4.394;2023-04-03T15:09:35;8.35;;;2.60;;
23596;SDS011;40226;50.874;4.394;2023-04-03T15:12:01;6.88;;;2.13;;
23596;SDS011;40226;50.874;4.394;2023-04-03T15:14:27;5.80;;;2.85;;
23596;SDS011;40226;50.874;4.394;2023-04-03T15:16:53;6.72;;;2.90;;
23596;SDS011;40226;50.874;4.394;2023-04-03T15:19:18;8.00;;;2.67;;
23596;SDS011;40226;50.874;4.394;2023-04-03T15:21:44;6.43;;;1.90;;
23596;SDS011;40226;50.874;4.394;2023-04-03T15:24:09;3.17;;;1.73;;
23596;SDS011;40226;50.874;4.394;2023-04-03T15:26:36;3.38;;;1.88;;
23596;SDS011;40226;50.874;4.394;2023-04-03T15:29:03;4.35;;;1.90;;
23596;SDS011;40226;50.874;4.394;2023-04-03T15:31:29;5.05;;;2.05;;
23596;SDS011;40226;50.874;4.394;2023-04-03T15:33:58;3.53;;;1.83;;
23596;SDS011;40226;50.874;4.394;2023-04-03T15:36:24;6.50;;;2.30;;
23596;SDS011;40226;50.874;4.394;2023-04-03T15:38:49;4.80;;;2.05;;
23596;SDS011;40226;50.874;4.394;2023-04-03T15:41:15;3.75;;;1.85;;
23596;SDS011;40226;50.874;4.394;2023-04-03T15:43:41;4.32;;;2.33;;
23596;SDS011;40226;50.874;4.394;2023-04-03T15:46:07;3.67;;;2.25;;
23596;SDS011;40226;50.874;4.394;2023-04-03T15:48:33;6.80;;;2.53;;
23596;SDS011;40226;50.874;4.394;2023-04-03T15:51:00;3.65;;;2.25;;
23596;SDS011;40226;50.874;4.394;2023-04-03T15:53:26;4.35;;;2.50;;
23596;SDS011;40226;50.874;4.394;2023-04-03T15:55:51;5.63;;;2.42;;
23596;SDS011;40226;50.874;4.394;2023-04-03T15:58:17;6.65;;;2.70;;
23596;SDS011;40226;50.874;4.394;2023-04-03T16:00:43;11.82;;;3.70;;
23596;SDS011;40226;50.874;4.394;2023-04-03T16:03:12;7.93;;;3.25;;
23596;SDS011;40226;50.874;4.394;2023-04-03T16:05:42;5.97;;;2.60;;
23596;SDS011;40226;50.874;4.394;2023-04-03T16:08:08;5.63;;;2.60;;
23596;SDS011;40226;50.874;4.394;2023-04-03T16:10:37;5.97;;;2.60;;
23596;SDS011;40226;50.874;4.394;2023-04-03T16:13:03;6.93;;;2.90;;
23596;SDS011;40226;50.874;4.394;2023-04-03T16:15:29;6.20;;;2.85;;
23596;SDS011;40226;50.874;4.394;2023-04-03T16:17:57;4.97;;;2.50;;
23596;SDS011;40226;50.874;4.394;2023-04-03T16:20:23;4.68;;;2.50;;
23596;SDS011;40226;50.874;4.394;2023-04-03T16:22:50;7.85;;;3.58;;
23596;SDS011;40226;50.874;4.394;2023-04-03T16:25:15;6.97;;;3.13;;
23596;SDS011;40226;50.874;4.394;2023-04-03T16:27:42;6.50;;;3.47;;
23596;SDS011;40226;50.874;4.394;2023-04-03T16:30:08;6.82;;;2.90;;
23596;SDS011;40226;50.874;4.394;2023-04-03T16:32:35;6.97;;;2.92;;
23596;SDS011;40226;50.874;4.394;2023-04-03T16:35:09;6.78;;;2.72;;
23596;SDS011;40226;50.874;4.394;2023-04-03T16:37:48;9.43;;;3.38;;
23596;SDS011;40226;50.874;4.394;2023-04-03T16:40:14;7.63;;;3.15;;
23596;SDS011;40226;50.874;4.394;2023-04-03T16:42:40;6.00;;;3.15;;
23596;SDS011;40226;50.874;4.394;2023-04-03T16:45:06;5.78;;;2.83;;
23596;SDS011;40226;50.874;4.394;2023-04-03T16:47:33;12.35;;;3.10;;
23596;SDS011;40226;50.874;4.394;2023-04-03T16:49:58;5.38;;;3.08;;